createdAt,value
2022-12-31T00:00:25.294Z,981.51
2022-12-31T00:01:24.781Z,981.47
2022-12-31T00:02:24.514Z,981.47
2022-12-31T00:03:25.068Z,981.46
2022-12-31T00:04:24.579Z,981.47
2022-12-31T00:05:24.371Z,981.47
2022-12-31T00:06:25.060Z,981.49
2022-12-31T00:07:24.367Z,981.60
2022-12-31T00:08:24.339Z,981.56
2022-12-31T00:09:24.502Z,981.59
2022-12-31T00:10:25.173Z,981.61
2022-12-31T00:11:24.295Z,981.62
2022-12-31T00:12:25.138Z,981.56
2022-12-31T00:13:24.279Z,981.52
2022-12-31T00:14:25.221Z,981.51
2022-12-31T00:15:24.222Z,981.52
2022-12-31T00:16:24.272Z,981.53
2022-12-31T00:17:24.251Z,981.54
2022-12-31T00:18:24.201Z,981.71
2022-12-31T00:19:24.210Z,981.57
2022-12-31T00:20:24.173Z,981.67
2022-12-31T00:21:24.416Z,981.58
2022-12-31T00:22:24.467Z,981.58
2022-12-31T00:23:24.275Z,981.57
2022-12-31T00:24:24.376Z,981.55
2022-12-31T00:25:24.115Z,981.58
2022-12-31T00:26:24.180Z,981.61
2022-12-31T00:27:24.104Z,981.62
2022-12-31T00:28:24.293Z,981.54
2022-12-31T00:29:24.285Z,981.56
2022-12-31T00:30:24.295Z,981.50
2022-12-31T00:31:24.102Z,981.49
2022-12-31T00:32:25.513Z,981.48
2022-12-31T00:33:24.060Z,981.43
2022-12-31T00:34:24.084Z,981.45
2022-12-31T00:35:23.973Z,981.37
2022-12-31T00:36:23.971Z,981.42
2022-12-31T00:37:24.134Z,981.43
2022-12-31T00:38:23.947Z,981.49
2022-12-31T00:39:24.375Z,981.36
2022-12-31T00:40:23.909Z,981.46
2022-12-31T00:41:23.893Z,981.46
2022-12-31T00:42:24.284Z,981.55
2022-12-31T00:43:24.289Z,981.51
2022-12-31T00:44:24.271Z,981.55
2022-12-31T00:45:24.050Z,981.50
2022-12-31T00:46:23.870Z,981.54
2022-12-31T00:47:23.847Z,981.58
2022-12-31T00:48:23.808Z,981.49
2022-12-31T00:49:23.793Z,981.55
2022-12-31T00:50:24.625Z,981.50
2022-12-31T00:51:23.817Z,981.48
2022-12-31T00:52:24.256Z,981.47
2022-12-31T00:53:24.230Z,981.50
2022-12-31T00:54:23.716Z,981.56
2022-12-31T00:55:23.723Z,981.56
2022-12-31T00:56:23.839Z,981.54
2022-12-31T00:57:23.721Z,981.58
2022-12-31T00:58:23.949Z,981.60
2022-12-31T00:59:24.007Z,981.51
2022-12-31T01:00:24.062Z,981.50
2022-12-31T01:01:23.754Z,981.54
2022-12-31T01:02:23.742Z,981.55
2022-12-31T01:03:23.661Z,981.47
2022-12-31T01:04:23.605Z,981.46
2022-12-31T01:05:23.587Z,981.45
2022-12-31T01:06:23.570Z,981.37
2022-12-31T01:07:24.240Z,981.39
2022-12-31T01:08:23.547Z,981.43
2022-12-31T01:09:23.538Z,981.52
2022-12-31T01:10:23.529Z,981.50
2022-12-31T01:11:23.526Z,981.50
2022-12-31T01:12:24.231Z,981.45
2022-12-31T01:13:24.237Z,981.46
2022-12-31T01:14:24.241Z,981.51
2022-12-31T01:15:24.288Z,981.47
2022-12-31T01:16:23.563Z,981.48
2022-12-31T01:17:23.449Z,981.47
2022-12-31T01:18:23.425Z,981.43
2022-12-31T01:19:23.411Z,981.47
2022-12-31T01:20:24.170Z,981.44
2022-12-31T01:21:24.256Z,981.41
2022-12-31T01:22:24.235Z,981.46
2022-12-31T01:23:23.391Z,981.43
2022-12-31T01:24:23.319Z,981.41
2022-12-31T01:25:23.320Z,981.45
2022-12-31T01:26:23.302Z,981.37
2022-12-31T01:27:23.328Z,981.41
2022-12-31T01:28:23.280Z,981.49
2022-12-31T01:29:23.268Z,981.48
2022-12-31T01:30:23.749Z,981.56
2022-12-31T01:31:23.857Z,981.56
2022-12-31T01:32:23.256Z,981.47
2022-12-31T01:33:23.218Z,981.47
2022-12-31T01:34:23.197Z,981.45
2022-12-31T01:35:23.196Z,981.45
2022-12-31T01:36:26.331Z,981.42
2022-12-31T01:37:23.199Z,981.40
2022-12-31T01:38:23.149Z,981.41
2022-12-31T01:39:23.141Z,981.51
2022-12-31T01:40:23.118Z,981.55
2022-12-31T01:41:23.116Z,981.54
2022-12-31T01:42:23.853Z,981.54
2022-12-31T01:43:23.079Z,981.56
2022-12-31T01:44:23.462Z,981.62
2022-12-31T01:45:24.261Z,981.68
2022-12-31T01:46:23.987Z,981.73
2022-12-31T01:47:23.880Z,981.75
2022-12-31T01:48:23.795Z,981.75
2022-12-31T01:49:23.631Z,981.80
2022-12-31T01:50:22.988Z,981.82
2022-12-31T01:51:22.987Z,981.84
2022-12-31T01:52:23.068Z,981.86
2022-12-31T01:53:23.128Z,981.88
2022-12-31T01:54:22.936Z,981.89
2022-12-31T01:55:22.943Z,981.86
2022-12-31T01:56:23.303Z,981.87
2022-12-31T01:57:22.930Z,981.89
2022-12-31T01:58:23.421Z,981.80
2022-12-31T01:59:22.887Z,981.80
2022-12-31T02:00:23.574Z,981.70
2022-12-31T02:01:23.690Z,981.68
2022-12-31T02:02:23.007Z,981.68
2022-12-31T02:03:22.858Z,981.63
2022-12-31T02:04:23.760Z,981.56
2022-12-31T02:05:22.800Z,981.48
2022-12-31T02:06:22.849Z,981.43
2022-12-31T02:07:22.852Z,981.38
2022-12-31T02:08:22.761Z,981.34
2022-12-31T02:09:23.563Z,981.35
2022-12-31T02:10:22.738Z,981.34
2022-12-31T02:11:22.739Z,981.32
2022-12-31T02:12:22.744Z,981.29
2022-12-31T02:13:22.705Z,981.25
2022-12-31T02:14:22.678Z,981.19
2022-12-31T02:15:23.034Z,981.18
2022-12-31T02:16:24.308Z,981.21
2022-12-31T02:17:23.562Z,981.19
2022-12-31T02:18:23.477Z,981.23
2022-12-31T02:19:22.618Z,981.19
2022-12-31T02:20:22.879Z,981.18
2022-12-31T02:21:22.587Z,981.16
2022-12-31T02:22:22.679Z,981.17
2022-12-31T02:23:22.595Z,981.14
2022-12-31T02:24:22.589Z,981.16
2022-12-31T02:25:22.602Z,981.10
2022-12-31T02:26:23.142Z,981.08
2022-12-31T02:27:22.548Z,981.13
2022-12-31T02:28:22.498Z,981.08
2022-12-31T02:29:22.658Z,981.05
2022-12-31T02:30:22.496Z,981.08
2022-12-31T02:31:23.458Z,980.99
2022-12-31T02:32:23.396Z,981.03
2022-12-31T02:33:22.463Z,980.99
2022-12-31T02:34:22.420Z,981.00
2022-12-31T02:35:22.410Z,980.95
2022-12-31T02:36:22.399Z,980.94
2022-12-31T02:37:23.195Z,980.98
2022-12-31T02:38:22.372Z,980.93
2022-12-31T02:39:22.366Z,980.96
2022-12-31T02:40:23.163Z,980.91
2022-12-31T02:41:22.350Z,980.89
2022-12-31T02:42:23.219Z,980.94
2022-12-31T02:43:22.327Z,980.92
2022-12-31T02:44:23.264Z,980.88
2022-12-31T02:45:23.186Z,980.96
2022-12-31T02:46:22.407Z,980.99
2022-12-31T02:47:22.320Z,980.93
2022-12-31T02:48:22.370Z,980.88
2022-12-31T02:49:22.229Z,980.83
2022-12-31T02:50:22.223Z,980.87
2022-12-31T02:51:22.578Z,980.84
2022-12-31T02:52:22.218Z,980.86
2022-12-31T02:53:22.657Z,980.72
2022-12-31T02:54:22.166Z,980.78
2022-12-31T02:55:22.148Z,980.77
2022-12-31T02:56:22.144Z,980.66
2022-12-31T02:57:22.901Z,980.72
2022-12-31T02:58:22.112Z,980.72
2022-12-31T02:59:22.857Z,980.68
2022-12-31T03:00:22.078Z,980.68
2022-12-31T03:01:22.198Z,980.70
2022-12-31T03:02:23.140Z,980.70
2022-12-31T03:03:22.996Z,980.71
2022-12-31T03:04:22.886Z,980.72
2022-12-31T03:05:22.036Z,980.72
2022-12-31T03:06:22.949Z,980.70
2022-12-31T03:07:22.025Z,980.71
2022-12-31T03:08:21.976Z,980.77
2022-12-31T03:09:21.970Z,980.73
2022-12-31T03:10:21.964Z,980.67
2022-12-31T03:11:21.944Z,980.72
2022-12-31T03:12:22.656Z,980.80
2022-12-31T03:13:22.794Z,980.87
2022-12-31T03:14:21.898Z,980.86
2022-12-31T03:15:21.939Z,980.82
2022-12-31T03:16:21.885Z,980.79
2022-12-31T03:17:22.137Z,980.85
2022-12-31T03:18:22.108Z,980.88
2022-12-31T03:19:21.840Z,980.89
2022-12-31T03:20:21.817Z,980.79
2022-12-31T03:21:21.810Z,980.79
2022-12-31T03:22:22.154Z,980.84
2022-12-31T03:23:22.267Z,980.78
2022-12-31T03:24:22.455Z,980.76
2022-12-31T03:25:21.811Z,980.66
2022-12-31T03:26:22.567Z,980.78
2022-12-31T03:27:21.738Z,980.74
2022-12-31T03:28:21.748Z,980.76
2022-12-31T03:29:22.542Z,980.72
2022-12-31T03:30:21.696Z,980.86
2022-12-31T03:31:21.729Z,980.84
2022-12-31T03:32:21.669Z,980.82
2022-12-31T03:33:23.054Z,980.65
2022-12-31T03:34:22.566Z,980.74
2022-12-31T03:35:22.478Z,980.72
2022-12-31T03:36:22.376Z,980.68
2022-12-31T03:37:22.542Z,980.66
2022-12-31T03:38:22.450Z,980.73
2022-12-31T03:39:22.351Z,980.73
2022-12-31T03:40:22.498Z,980.73
2022-12-31T03:41:22.425Z,980.59
2022-12-31T03:42:22.313Z,980.52
2022-12-31T03:43:21.578Z,980.60
2022-12-31T03:44:21.589Z,980.61
2022-12-31T03:45:21.651Z,980.61
2022-12-31T03:46:21.759Z,980.72
2022-12-31T03:47:21.770Z,980.71
2022-12-31T03:48:21.936Z,980.74
2022-12-31T03:49:21.870Z,980.72
2022-12-31T03:50:21.918Z,980.67
2022-12-31T03:51:21.995Z,980.66
2022-12-31T03:52:22.036Z,980.64
2022-12-31T03:53:21.831Z,980.66
2022-12-31T03:54:22.008Z,980.50
2022-12-31T03:55:22.207Z,980.59
2022-12-31T03:56:22.254Z,980.57
2022-12-31T03:57:22.152Z,980.56
2022-12-31T03:58:22.126Z,980.67
2022-12-31T03:59:22.215Z,980.59
2022-12-31T04:00:22.116Z,980.50
2022-12-31T04:01:22.098Z,980.60
2022-12-31T04:02:28.136Z,980.54
2022-12-31T04:03:22.317Z,980.47
2022-12-31T04:04:21.988Z,980.61
2022-12-31T04:05:21.250Z,980.58
2022-12-31T04:06:22.059Z,980.33
2022-12-31T04:07:21.962Z,980.40
2022-12-31T04:08:22.123Z,980.46
2022-12-31T04:09:22.497Z,980.52
2022-12-31T04:10:21.935Z,980.66
2022-12-31T04:11:21.360Z,980.52
2022-12-31T04:12:21.169Z,980.54
2022-12-31T04:13:21.225Z,980.51
2022-12-31T04:14:21.289Z,980.50
2022-12-31T04:15:21.346Z,980.56
2022-12-31T04:16:21.456Z,980.64
2022-12-31T04:17:21.447Z,980.51
2022-12-31T04:18:21.508Z,980.42
2022-12-31T04:19:21.619Z,980.47
2022-12-31T04:20:21.615Z,980.55
2022-12-31T04:21:21.677Z,980.67
2022-12-31T04:22:21.731Z,980.62
2022-12-31T04:23:21.781Z,980.63
2022-12-31T04:24:21.860Z,980.64
2022-12-31T04:25:21.797Z,980.69
2022-12-31T04:26:21.925Z,980.66
2022-12-31T04:27:20.960Z,980.62
2022-12-31T04:28:21.735Z,980.75
2022-12-31T04:29:20.961Z,980.65
2022-12-31T04:30:21.810Z,980.69
2022-12-31T04:31:21.199Z,980.66
2022-12-31T04:32:21.871Z,980.74
2022-12-31T04:33:21.767Z,980.66
2022-12-31T04:34:22.387Z,980.89
2022-12-31T04:35:21.836Z,980.67
2022-12-31T04:36:20.846Z,980.77
2022-12-31T04:37:21.638Z,980.73
2022-12-31T04:38:21.547Z,980.51
2022-12-31T04:39:21.696Z,980.75
2022-12-31T04:40:20.786Z,980.70
2022-12-31T04:41:20.849Z,980.70
2022-12-31T04:42:20.872Z,980.68
2022-12-31T04:43:20.918Z,980.73
2022-12-31T04:44:21.005Z,980.61
2022-12-31T04:45:21.030Z,980.76
2022-12-31T04:46:21.144Z,980.84
2022-12-31T04:47:23.867Z,980.71
2022-12-31T04:48:21.219Z,980.79
2022-12-31T04:49:21.277Z,980.59
2022-12-31T04:50:21.422Z,980.73
2022-12-31T04:51:20.647Z,980.76
2022-12-31T04:52:21.452Z,980.79
2022-12-31T04:53:21.423Z,980.69
2022-12-31T04:54:21.537Z,980.69
2022-12-31T04:55:21.450Z,980.62
2022-12-31T04:56:20.577Z,980.55
2022-12-31T04:57:21.513Z,980.62
2022-12-31T04:58:20.587Z,980.71
2022-12-31T04:59:21.328Z,980.69
2022-12-31T05:00:21.478Z,980.74
2022-12-31T05:01:21.511Z,980.80
2022-12-31T05:02:21.391Z,980.68
2022-12-31T05:03:20.556Z,980.85
2022-12-31T05:04:20.618Z,980.90
2022-12-31T05:05:21.262Z,980.90
2022-12-31T05:06:21.398Z,980.84
2022-12-31T05:07:21.042Z,980.90
2022-12-31T05:08:21.235Z,980.93
2022-12-31T05:09:20.409Z,980.98
2022-12-31T05:10:20.394Z,980.96
2022-12-31T05:11:20.520Z,980.97
2022-12-31T05:12:20.576Z,981.00
2022-12-31T05:13:20.637Z,980.83
2022-12-31T05:14:20.366Z,980.98
2022-12-31T05:15:20.739Z,980.90
2022-12-31T05:16:20.841Z,981.01
2022-12-31T05:17:20.862Z,980.94
2022-12-31T05:18:20.909Z,981.02
2022-12-31T05:19:20.961Z,981.04
2022-12-31T05:20:21.019Z,981.13
2022-12-31T05:21:20.388Z,981.05
2022-12-31T05:22:21.144Z,980.98
2022-12-31T05:23:21.069Z,981.06
2022-12-31T05:24:20.968Z,980.91
2022-12-31T05:25:20.279Z,980.98
2022-12-31T05:26:20.220Z,980.97
2022-12-31T05:27:20.578Z,981.04
2022-12-31T05:28:20.720Z,981.01
2022-12-31T05:29:21.000Z,980.95
2022-12-31T05:30:20.899Z,980.96
2022-12-31T05:31:21.112Z,981.00
2022-12-31T05:32:20.800Z,980.94
2022-12-31T05:33:20.871Z,980.96
2022-12-31T05:34:21.031Z,980.93
2022-12-31T05:35:20.940Z,980.95
2022-12-31T05:36:20.413Z,981.03
2022-12-31T05:37:20.999Z,981.12
2022-12-31T05:38:20.053Z,981.13
2022-12-31T05:39:20.106Z,980.91
2022-12-31T05:40:20.165Z,981.11
2022-12-31T05:41:20.217Z,981.22
2022-12-31T05:42:20.283Z,980.95
2022-12-31T05:43:20.339Z,981.05
2022-12-31T05:44:20.399Z,980.99
2022-12-31T05:45:23.878Z,981.00
2022-12-31T05:46:21.690Z,981.11
2022-12-31T05:47:20.289Z,981.12
2022-12-31T05:48:20.620Z,980.93
2022-12-31T05:49:20.610Z,980.91
2022-12-31T05:50:20.743Z,981.12
2022-12-31T05:51:20.790Z,981.05
2022-12-31T05:52:19.977Z,981.06
2022-12-31T05:53:20.021Z,981.03
2022-12-31T05:54:20.665Z,981.07
2022-12-31T05:55:20.554Z,981.04
2022-12-31T05:56:20.721Z,980.97
2022-12-31T05:57:20.611Z,981.25
2022-12-31T05:58:20.301Z,980.98
2022-12-31T05:59:19.741Z,981.05
2022-12-31T06:00:20.590Z,981.09
2022-12-31T06:01:20.520Z,981.09
2022-12-31T06:02:20.676Z,981.08
2022-12-31T06:03:20.630Z,981.13
2022-12-31T06:04:20.458Z,981.02
2022-12-31T06:05:25.966Z,981.11
2022-12-31T06:06:21.300Z,981.06
2022-12-31T06:07:19.700Z,981.18
2022-12-31T06:08:19.780Z,981.16
2022-12-31T06:09:19.841Z,981.09
2022-12-31T06:10:19.876Z,981.13
2022-12-31T06:11:19.939Z,981.09
2022-12-31T06:12:20.001Z,981.08
2022-12-31T06:13:20.078Z,981.11
2022-12-31T06:14:20.113Z,981.17
2022-12-31T06:15:20.169Z,981.21
2022-12-31T06:16:20.299Z,981.21
2022-12-31T06:17:20.279Z,981.26
2022-12-31T06:18:20.337Z,981.15
2022-12-31T06:19:20.292Z,981.22
2022-12-31T06:20:20.202Z,981.12
2022-12-31T06:21:20.360Z,981.19
2022-12-31T06:22:20.272Z,981.12
2022-12-31T06:23:20.038Z,981.15
2022-12-31T06:24:19.999Z,981.20
2022-12-31T06:25:20.252Z,981.21
2022-12-31T06:26:19.460Z,981.23
2022-12-31T06:27:19.419Z,981.11
2022-12-31T06:28:20.777Z,981.28
2022-12-31T06:29:20.103Z,981.22
2022-12-31T06:30:20.268Z,981.34
2022-12-31T06:31:20.213Z,981.31
2022-12-31T06:32:20.077Z,981.34
2022-12-31T06:33:20.251Z,981.24
2022-12-31T06:34:20.145Z,981.29
2022-12-31T06:35:19.291Z,981.30
2022-12-31T06:36:19.364Z,981.31
2022-12-31T06:37:19.450Z,981.31
2022-12-31T06:38:19.472Z,981.30
2022-12-31T06:39:19.529Z,981.36
2022-12-31T06:40:19.227Z,981.29
2022-12-31T06:41:19.639Z,981.29
2022-12-31T06:42:19.691Z,981.25
2022-12-31T06:43:19.751Z,981.27
2022-12-31T06:44:19.811Z,981.24
2022-12-31T06:45:20.871Z,981.36
2022-12-31T06:46:19.969Z,981.23
2022-12-31T06:47:19.918Z,981.21
2022-12-31T06:48:20.042Z,981.38
2022-12-31T06:49:20.100Z,981.36
2022-12-31T06:50:19.889Z,981.41
2022-12-31T06:51:20.039Z,981.36
2022-12-31T06:52:19.060Z,981.50
2022-12-31T06:53:19.858Z,981.39
2022-12-31T06:54:19.171Z,981.33
2022-12-31T06:55:19.023Z,981.51
2022-12-31T06:56:19.825Z,981.41
2022-12-31T06:57:19.731Z,981.42
2022-12-31T06:58:19.880Z,981.49
2022-12-31T06:59:19.783Z,981.55
2022-12-31T07:00:19.693Z,981.50
2022-12-31T07:01:19.980Z,981.54
2022-12-31T07:02:18.908Z,981.56
2022-12-31T07:03:18.942Z,981.34
2022-12-31T07:04:18.963Z,981.41
2022-12-31T07:05:19.012Z,981.61
2022-12-31T07:06:19.012Z,981.44
2022-12-31T07:07:18.804Z,981.50
2022-12-31T07:08:18.805Z,981.56
2022-12-31T07:09:18.801Z,981.56
2022-12-31T07:10:22.715Z,981.64
2022-12-31T07:11:20.683Z,981.57
2022-12-31T07:12:18.736Z,981.69
2022-12-31T07:13:18.716Z,981.74
2022-12-31T07:14:18.722Z,981.69
2022-12-31T07:15:18.681Z,981.65
2022-12-31T07:16:18.710Z,981.82
2022-12-31T07:17:18.667Z,981.76
2022-12-31T07:18:18.645Z,981.73
2022-12-31T07:19:19.395Z,981.88
2022-12-31T07:20:18.631Z,981.89
2022-12-31T07:21:18.762Z,981.81
2022-12-31T07:22:18.762Z,981.99
2022-12-31T07:23:18.583Z,981.90
2022-12-31T07:24:18.767Z,981.81
2022-12-31T07:25:18.849Z,981.88
2022-12-31T07:26:18.548Z,981.67
2022-12-31T07:27:18.544Z,981.76
2022-12-31T07:28:18.762Z,981.88
2022-12-31T07:29:18.652Z,981.80
2022-12-31T07:30:18.766Z,981.87
2022-12-31T07:31:18.547Z,981.88
2022-12-31T07:32:19.182Z,981.88
2022-12-31T07:33:18.601Z,982.02
2022-12-31T07:34:18.465Z,981.81
2022-12-31T07:35:18.719Z,981.90
2022-12-31T07:36:18.764Z,982.01
2022-12-31T07:37:18.863Z,981.81
2022-12-31T07:38:18.474Z,982.04
2022-12-31T07:39:18.851Z,981.93
2022-12-31T07:40:18.769Z,981.98
2022-12-31T07:41:18.772Z,982.11
2022-12-31T07:42:18.763Z,981.90
2022-12-31T07:43:18.775Z,982.29
2022-12-31T07:44:18.787Z,982.02
2022-12-31T07:45:18.802Z,981.96
2022-12-31T07:46:18.824Z,981.97
2022-12-31T07:47:18.293Z,981.91
2022-12-31T07:48:18.805Z,982.03
2022-12-31T07:49:18.821Z,981.93
2022-12-31T07:50:18.796Z,982.05
2022-12-31T07:51:18.238Z,982.05
2022-12-31T07:52:18.830Z,982.12
2022-12-31T07:53:18.768Z,982.10
2022-12-31T07:54:18.314Z,982.08
2022-12-31T07:55:18.854Z,982.14
2022-12-31T07:56:18.245Z,982.08
2022-12-31T07:57:18.220Z,982.06
2022-12-31T07:58:18.754Z,982.17
2022-12-31T07:59:24.043Z,982.04
2022-12-31T08:00:20.069Z,982.13
2022-12-31T08:01:18.227Z,982.22
2022-12-31T08:02:18.147Z,982.26
2022-12-31T08:03:18.294Z,982.24
2022-12-31T08:04:18.342Z,982.23
2022-12-31T08:05:18.201Z,982.24
2022-12-31T08:06:18.029Z,982.37
2022-12-31T08:07:18.003Z,982.35
2022-12-31T08:08:18.014Z,982.36
2022-12-31T08:09:18.009Z,982.25
2022-12-31T08:10:18.520Z,982.31
2022-12-31T08:11:18.025Z,982.37
2022-12-31T08:12:18.044Z,982.35
2022-12-31T08:13:17.941Z,982.42
2022-12-31T08:14:18.056Z,982.34
2022-12-31T08:15:18.245Z,982.34
2022-12-31T08:16:18.107Z,982.23
2022-12-31T08:17:18.073Z,982.33
2022-12-31T08:18:18.136Z,982.38
2022-12-31T08:19:17.868Z,982.39
2022-12-31T08:20:18.152Z,982.40
2022-12-31T08:21:18.244Z,982.38
2022-12-31T08:22:17.925Z,982.37
2022-12-31T08:23:18.243Z,982.54
2022-12-31T08:24:17.986Z,982.53
2022-12-31T08:25:18.341Z,982.47
2022-12-31T08:26:18.204Z,982.41
2022-12-31T08:27:18.036Z,982.45
2022-12-31T08:28:17.792Z,982.41
2022-12-31T08:29:17.761Z,982.68
2022-12-31T08:30:17.799Z,982.67
2022-12-31T08:31:17.910Z,982.54
2022-12-31T08:32:17.916Z,982.60
2022-12-31T08:33:17.954Z,982.62
2022-12-31T08:34:18.078Z,982.57
2022-12-31T08:35:18.764Z,982.74
2022-12-31T08:36:18.126Z,982.57
2022-12-31T08:37:17.749Z,982.70
2022-12-31T08:38:18.226Z,982.70
2022-12-31T08:39:18.301Z,982.71
2022-12-31T08:40:18.366Z,982.72
2022-12-31T08:41:18.405Z,982.74
2022-12-31T08:42:18.347Z,982.68
2022-12-31T08:43:17.608Z,982.71
2022-12-31T08:44:22.564Z,982.66
2022-12-31T08:45:18.324Z,982.70
2022-12-31T08:46:17.539Z,982.65
2022-12-31T08:47:18.248Z,982.66
2022-12-31T08:48:18.282Z,982.67
2022-12-31T08:49:18.204Z,982.78
2022-12-31T08:50:17.455Z,982.78
2022-12-31T08:51:17.432Z,982.74
2022-12-31T08:52:17.422Z,982.80
2022-12-31T08:53:17.414Z,982.70
2022-12-31T08:54:17.421Z,982.71
2022-12-31T08:55:17.429Z,982.73
2022-12-31T08:56:17.526Z,982.83
2022-12-31T08:57:17.415Z,982.87
2022-12-31T08:58:17.428Z,982.62
2022-12-31T08:59:17.416Z,982.68
2022-12-31T09:00:17.320Z,982.68
2022-12-31T09:01:17.565Z,982.58
2022-12-31T09:02:17.282Z,982.73
2022-12-31T09:03:17.278Z,982.72
2022-12-31T09:04:17.462Z,982.62
2022-12-31T09:05:17.237Z,982.73
2022-12-31T09:06:17.330Z,982.72
2022-12-31T09:07:17.272Z,982.68
2022-12-31T09:08:17.341Z,982.77
2022-12-31T09:09:17.228Z,982.75
2022-12-31T09:10:17.167Z,982.82
2022-12-31T09:11:22.785Z,982.86
2022-12-31T09:12:18.168Z,982.82
2022-12-31T09:13:17.419Z,982.96
2022-12-31T09:14:17.437Z,982.95
2022-12-31T09:15:17.436Z,982.86
2022-12-31T09:16:17.214Z,982.81
2022-12-31T09:17:17.422Z,982.93
2022-12-31T09:18:17.178Z,982.94
2022-12-31T09:19:17.095Z,982.81
2022-12-31T09:20:17.037Z,982.83
2022-12-31T09:21:17.028Z,982.85
2022-12-31T09:22:17.015Z,983.19
2022-12-31T09:23:17.419Z,983.04
2022-12-31T09:24:17.024Z,982.96
2022-12-31T09:25:17.423Z,982.90
2022-12-31T09:26:17.429Z,982.88
2022-12-31T09:27:20.053Z,983.02
2022-12-31T09:28:18.772Z,983.14
2022-12-31T09:29:17.127Z,982.96
2022-12-31T09:30:16.976Z,983.01
2022-12-31T09:31:16.969Z,982.98
2022-12-31T09:32:16.894Z,982.99
2022-12-31T09:33:16.969Z,983.04
2022-12-31T09:34:17.358Z,982.99
2022-12-31T09:35:17.477Z,982.98
2022-12-31T09:36:17.417Z,983.03
2022-12-31T09:37:17.398Z,983.02
2022-12-31T09:38:16.820Z,983.00
2022-12-31T09:39:17.412Z,983.01
2022-12-31T09:40:16.812Z,983.03
2022-12-31T09:41:16.786Z,983.07
2022-12-31T09:42:17.417Z,983.03
2022-12-31T09:43:17.301Z,983.11
2022-12-31T09:44:16.760Z,983.02
2022-12-31T09:45:17.420Z,983.02
2022-12-31T09:46:16.702Z,983.06
2022-12-31T09:47:16.709Z,982.93
2022-12-31T09:48:17.409Z,983.00
2022-12-31T09:49:16.671Z,983.15
2022-12-31T09:50:16.681Z,983.17
2022-12-31T09:51:21.744Z,983.29
2022-12-31T09:52:18.358Z,983.33
2022-12-31T09:53:17.298Z,983.24
2022-12-31T09:54:17.308Z,983.16
2022-12-31T09:55:16.920Z,983.13
2022-12-31T09:56:16.578Z,983.14
2022-12-31T09:57:16.604Z,983.06
2022-12-31T09:58:16.693Z,983.13
2022-12-31T09:59:16.760Z,983.18
2022-12-31T10:00:16.799Z,983.23
2022-12-31T10:01:16.642Z,983.11
2022-12-31T10:02:16.639Z,983.16
2022-12-31T10:03:16.538Z,983.03
2022-12-31T10:04:16.468Z,983.19
2022-12-31T10:05:17.099Z,983.16
2022-12-31T10:06:17.163Z,983.14
2022-12-31T10:07:17.201Z,983.06
2022-12-31T10:08:16.450Z,983.20
2022-12-31T10:09:16.453Z,983.26
2022-12-31T10:10:16.583Z,983.14
2022-12-31T10:11:16.382Z,983.09
2022-12-31T10:12:16.532Z,983.11
2022-12-31T10:13:16.371Z,983.11
2022-12-31T10:14:16.500Z,983.22
2022-12-31T10:15:16.368Z,983.17
2022-12-31T10:16:16.421Z,983.26
2022-12-31T10:17:16.373Z,983.18
2022-12-31T10:18:17.062Z,983.22
2022-12-31T10:19:16.744Z,983.23
2022-12-31T10:20:16.674Z,983.34
2022-12-31T10:21:17.042Z,983.39
2022-12-31T10:22:16.424Z,983.31
2022-12-31T10:23:17.093Z,983.24
2022-12-31T10:24:16.253Z,983.42
2022-12-31T10:25:16.220Z,983.40
2022-12-31T10:26:16.223Z,983.46
2022-12-31T10:27:16.358Z,983.40
2022-12-31T10:28:16.493Z,983.42
2022-12-31T10:29:16.463Z,983.41
2022-12-31T10:30:16.537Z,983.44
2022-12-31T10:31:16.196Z,983.64
2022-12-31T10:32:16.257Z,983.49
2022-12-31T10:33:16.192Z,983.60
2022-12-31T10:34:16.747Z,983.45
2022-12-31T10:35:16.094Z,983.71
2022-12-31T10:36:16.072Z,983.50
2022-12-31T10:37:16.787Z,983.35
2022-12-31T10:38:17.016Z,983.57
2022-12-31T10:39:22.231Z,983.55
2022-12-31T10:40:17.292Z,983.34
2022-12-31T10:41:16.004Z,983.59
2022-12-31T10:42:16.199Z,983.63
2022-12-31T10:43:16.177Z,983.48
2022-12-31T10:44:16.978Z,983.48
2022-12-31T10:45:16.782Z,983.65
2022-12-31T10:46:22.477Z,983.68
2022-12-31T10:47:16.941Z,983.74
2022-12-31T10:48:15.905Z,983.68
2022-12-31T10:49:15.922Z,983.63
2022-12-31T10:50:15.919Z,983.51
2022-12-31T10:51:16.039Z,983.81
2022-12-31T10:52:16.612Z,983.69
2022-12-31T10:53:16.185Z,983.65
2022-12-31T10:54:15.850Z,983.68
2022-12-31T10:55:15.990Z,983.61
2022-12-31T10:56:16.047Z,983.59
2022-12-31T10:57:16.103Z,983.64
2022-12-31T10:58:15.770Z,983.60
2022-12-31T10:59:16.235Z,983.66
2022-12-31T11:00:16.375Z,983.70
2022-12-31T11:01:15.808Z,983.89
2022-12-31T11:02:15.875Z,983.91
2022-12-31T11:03:15.716Z,983.86
2022-12-31T11:04:15.760Z,983.78
2022-12-31T11:05:16.398Z,983.85
2022-12-31T11:06:15.665Z,983.90
2022-12-31T11:07:16.061Z,983.98
2022-12-31T11:08:15.634Z,983.63
2022-12-31T11:09:15.739Z,983.84
2022-12-31T11:10:15.694Z,983.82
2022-12-31T11:11:15.604Z,983.79
2022-12-31T11:12:16.489Z,983.78
2022-12-31T11:13:16.018Z,983.81
2022-12-31T11:14:16.307Z,983.76
2022-12-31T11:15:15.607Z,983.84
2022-12-31T11:16:15.723Z,983.90
2022-12-31T11:17:15.606Z,983.77
2022-12-31T11:18:15.738Z,983.78
2022-12-31T11:19:15.653Z,983.79
2022-12-31T11:20:15.552Z,983.69
2022-12-31T11:21:15.616Z,983.86
2022-12-31T11:22:15.573Z,983.72
2022-12-31T11:23:15.539Z,983.82
2022-12-31T11:24:15.745Z,983.71
2022-12-31T11:25:15.734Z,983.77
2022-12-31T11:26:15.777Z,983.74
2022-12-31T11:27:15.845Z,983.76
2022-12-31T11:28:15.377Z,983.73
2022-12-31T11:29:15.978Z,983.78
2022-12-31T11:30:16.019Z,983.76
2022-12-31T11:31:16.129Z,983.89
2022-12-31T11:32:16.012Z,983.83
2022-12-31T11:33:15.314Z,983.83
2022-12-31T11:34:15.425Z,983.86
2022-12-31T11:35:15.344Z,983.83
2022-12-31T11:36:15.293Z,983.83
2022-12-31T11:37:15.268Z,983.89
2022-12-31T11:38:15.727Z,983.87
2022-12-31T11:39:15.237Z,983.69
2022-12-31T11:40:16.114Z,983.83
2022-12-31T11:41:15.286Z,983.75
2022-12-31T11:42:15.198Z,983.82
2022-12-31T11:43:16.037Z,983.95
2022-12-31T11:44:15.172Z,983.86
2022-12-31T11:45:16.051Z,983.88
2022-12-31T11:46:16.085Z,983.62
2022-12-31T11:47:15.955Z,983.80
2022-12-31T11:48:32.465Z,983.74
2022-12-31T11:49:16.136Z,983.67
2022-12-31T11:50:15.130Z,983.68
2022-12-31T11:51:15.217Z,983.65
2022-12-31T11:52:19.553Z,983.46
2022-12-31T11:53:16.047Z,983.73
2022-12-31T11:54:15.339Z,983.65
2022-12-31T11:55:15.059Z,983.70
2022-12-31T11:56:15.017Z,983.62
2022-12-31T11:57:15.018Z,983.71
2022-12-31T11:58:14.993Z,983.68
2022-12-31T11:59:19.458Z,983.64
2022-12-31T12:00:16.746Z,983.68
2022-12-31T12:01:15.614Z,983.70
2022-12-31T12:02:15.592Z,983.66
2022-12-31T12:03:14.950Z,983.46
2022-12-31T12:04:15.026Z,983.45
2022-12-31T12:05:15.677Z,983.49
2022-12-31T12:06:14.883Z,983.53
2022-12-31T12:07:14.937Z,983.55
2022-12-31T12:08:14.851Z,983.48
2022-12-31T12:09:15.429Z,983.43
2022-12-31T12:10:15.825Z,983.50
2022-12-31T12:11:15.686Z,983.49
2022-12-31T12:12:14.806Z,983.53
2022-12-31T12:13:15.768Z,983.54
2022-12-31T12:14:14.787Z,983.54
2022-12-31T12:15:14.789Z,983.56
2022-12-31T12:16:16.132Z,983.51
2022-12-31T12:17:15.619Z,983.61
2022-12-31T12:18:14.720Z,983.56
2022-12-31T12:19:14.868Z,983.66
2022-12-31T12:20:14.738Z,983.63
2022-12-31T12:21:14.892Z,983.54
2022-12-31T12:22:14.828Z,983.49
2022-12-31T12:23:14.894Z,983.58
2022-12-31T12:24:14.700Z,983.66
2022-12-31T12:25:14.840Z,983.64
2022-12-31T12:26:15.050Z,983.58
2022-12-31T12:27:15.129Z,983.70
2022-12-31T12:28:15.294Z,983.60